Papalote, Texas
Current Conditions -  °F | °C
As of 11:51 AM on Monday 26 Jan 2015 (Local Time) from KCRP Reporting Station
Broken Clouds Broken Clouds  
Wind Chill: 70°   Ceiling: 25000
Heat Index: 70°   Visibility: 10mi
Dew Point: 42°   Wind: 5mph
Humidity: 36%   Direction: NA
Pressure: 30.29"   Gusts: NA
Location:  28.0577°N, 97.5365°W
Report Text: KCRP 261751Z VRB04KT 10SM FEW060 BKN250 21/06 A3029 RMK AO2 SLP255 T02110056 10211 20050 50000
Loading
Personal Weather Stations






























Interactive Weather Map New forecast layout! Learn more

10-Day Weather Forecast

Advertisements
Track Severe Weather on mobile